Time;durP1;ratioP1;P1;durP2;ratioP2;P2;SDS_P1;SDS_P2;PMS_P1;PMS_P2;Temp;Humidity;BMP_temperature;BMP_pressure;BME280_temperature;BME280_humidity;BME280_pressure;Samples;Min_cycle;Max_cycle;Signal;HPM_P1;HPM_P2
2022/12/03 00:02:08;;;;;;;21.92;9.45;;;2.70;11.70;;;;;;4974425;28;20031;-73
2022/12/03 00:04:34;;;;;;;19.73;8.20;;;2.60;12.80;;;;;;4974300;28;20033;-73
2022/12/03 00:07:00;;;;;;;24.02;10.15;;;2.60;13.70;;;;;;4976269;28;20062;-73
2022/12/03 00:09:26;;;;;;;24.83;10.75;;;2.50;14.60;;;;;;4978247;28;20181;-73
2022/12/03 00:11:51;;;;;;;24.23;10.43;;;2.30;16.10;;;;;;4978024;28;20102;-74
2022/12/03 00:14:17;;;;;;;23.95;10.18;;;2.20;17.70;;;;;;4978149;28;20082;-74
2022/12/03 00:16:42;;;;;;;23.00;10.35;;;2.10;18.60;;;;;;4977881;28;20034;-73
2022/12/03 00:19:08;;;;;;;26.45;10.48;;;2.00;19.50;;;;;;4978021;28;20023;-74
2022/12/03 00:21:34;;;;;;;21.15;10.27;;;1.90;20.20;;;;;;4977871;28;20022;-74
2022/12/03 00:24:00;;;;;;;27.58;9.82;;;1.90;20.80;;;;;;4977686;28;20042;-74
2022/12/03 00:26:26;;;;;;;25.27;10.45;;;1.80;21.30;;;;;;4977662;28;20023;-73
2022/12/03 00:28:51;;;;;;;21.05;8.30;;;1.60;22.80;;;;;;4977694;28;20031;-73
2022/12/03 00:31:17;;;;;;;26.15;10.00;;;1.70;24.20;;;;;;4977678;28;20370;-74
2022/12/03 00:33:43;;;;;;;25.60;10.10;;;1.60;25.20;;;;;;4977700;28;20440;-74
2022/12/03 00:36:09;;;;;;;23.83;10.55;;;1.50;26.60;;;;;;4977723;28;20023;-74
2022/12/03 00:38:34;;;;;;;21.15;8.38;;;1.50;27.90;;;;;;4977482;28;20385;-74
2022/12/03 00:41:00;;;;;;;26.42;10.27;;;1.50;28.60;;;;;;4977548;28;20023;-74
2022/12/03 00:43:25;;;;;;;25.10;10.18;;;1.50;28.60;;;;;;4977434;28;20114;-74
2022/12/03 00:45:51;;;;;;;24.60;8.23;;;1.50;29.90;;;;;;4977557;28;20038;-74
2022/12/03 00:48:16;;;;;;;26.30;10.45;;;1.50;30.40;;;;;;4977332;28;20421;-73
2022/12/03 00:50:42;;;;;;;26.90;9.13;;;1.50;33.00;;;;;;4977198;28;20066;-74
2022/12/03 00:53:08;;;;;;;24.23;9.98;;;1.50;32.60;;;;;;4977357;28;20459;-73
2022/12/03 00:55:33;;;;;;;27.52;9.55;;;1.50;36.60;;;;;;4977493;28;20133;-73
2022/12/03 00:57:59;;;;;;;20.38;7.68;;;1.50;35.40;;;;;;4986874;28;20026;-73
2022/12/03 01:00:25;;;;;;;25.60;9.20;;;1.50;39.50;;;;;;4996920;28;20022;-73
2022/12/03 01:02:51;;;;;;;25.83;10.27;;;1.50;40.20;;;;;;4996534;28;20018;-73
2022/12/03 01:05:18;;;;;;;22.25;9.00;;;1.50;42.40;;;;;;4996734;28;20042;-73
2022/12/03 01:07:44;;;;;;;25.25;9.93;;;1.50;45.30;;;;;;4996473;28;20037;-74
2022/12/03 01:10:10;;;;;;;19.90;7.85;;;1.50;50.10;;;;;;4996571;28;20480;-73
2022/12/03 01:12:36;;;;;;;25.40;9.55;;;1.60;54.30;;;;;;4996521;28;20489;-73
2022/12/03 01:15:02;;;;;;;19.85;7.93;;;1.60;58.00;;;;;;4996417;28;20031;-73
2022/12/03 01:17:27;;;;;;;23.05;8.52;;;1.70;59.10;;;;;;4996342;28;20664;-73
2022/12/03 01:19:53;;;;;;;22.75;9.05;;;1.80;62.40;;;;;;4996346;28;20035;-73
2022/12/03 01:22:19;;;;;;;19.55;8.00;;;1.90;64.10;;;;;;4996200;28;20050;-74
2022/12/03 01:24:44;;;;;;;18.70;7.63;;;1.90;64.70;;;;;;4996223;28;20533;-73
2022/12/03 01:27:10;;;;;;;22.48;8.35;;;2.00;67.10;;;;;;4996107;28;20026;-74
2022/12/03 01:29:35;;;;;;;18.25;7.78;;;2.10;67.70;;;;;;4983167;28;20074;-73
2022/12/03 01:32:16;;;;;;;19.50;7.70;;;2.20;71.20;;;;;;4976837;28;20465;-74
2022/12/03 01:34:46;;;;;;;12.23;5.90;;;2.30;71.20;;;;;;4976774;28;20027;-74
2022/12/03 01:37:12;;;;;;;16.23;6.22;;;2.30;73.20;;;;;;4976992;28;20031;-73
2022/12/03 01:39:39;;;;;;;13.32;5.75;;;2.60;80.20;;;;;;4976547;28;20035;-73
2022/12/03 01:42:06;;;;;;;11.18;5.25;;;2.70;84.80;;;;;;4976545;28;20027;-73
2022/12/03 01:44:35;;;;;;;14.75;6.05;;;2.90;83.90;;;;;;4976260;28;20022;-73
2022/12/03 01:47:04;;;;;;;7.35;3.45;;;3.00;87.90;;;;;;4976498;28;20382;-73
2022/12/03 01:49:50;;;;;;;10.43;4.63;;;3.00;89.30;;;;;;4976343;28;20030;-73
2022/12/03 01:52:19;;;;;;;7.85;3.92;;;3.10;88.10;;;;;;4976193;28;20098;-74
2022/12/03 01:54:49;;;;;;;11.50;4.90;;;3.20;87.00;;;;;;4976186;28;20114;-73
2022/12/03 01:57:25;;;;;;;10.70;4.47;;;3.20;86.80;;;;;;4976201;28;20417;-74
2022/12/03 01:59:53;;;;;;;10.70;3.97;;;3.10;89.00;;;;;;4976513;28;20264;-74
2022/12/03 02:02:23;;;;;;;12.70;6.57;;;3.10;87.80;;;;;;4976133;28;20484;-74
2022/12/03 02:04:49;;;;;;;12.30;4.72;;;3.10;88.70;;;;;;4976013;28;20078;-74
2022/12/03 02:07:21;;;;;;;16.75;6.45;;;3.10;85.70;;;;;;4976092;28;20097;-73
2022/12/03 02:09:46;;;;;;;16.00;6.70;;;3.10;84.40;;;;;;4976078;28;20026;-74
2022/12/03 02:12:15;;;;;;;12.73;6.32;;;3.10;84.10;;;;;;4975740;28;20065;-73
2022/12/03 02:14:41;;;;;;;8.75;4.80;;;3.00;83.80;;;;;;4975902;28;20030;-74
2022/12/03 02:17:07;;;;;;;8.70;4.50;;;3.00;82.00;;;;;;4975866;28;20022;-74
2022/12/03 02:19:33;;;;;;;11.18;5.30;;;3.00;80.50;;;;;;4975708;28;20033;-73
2022/12/03 02:22:11;;;;;;;12.45;5.32;;;3.00;77.20;;;;;;4976081;28;20015;-73
2022/12/03 02:24:41;;;;;;;9.05;4.88;;;3.00;74.00;;;;;;4975614;28;20030;-73
2022/12/03 02:27:06;;;;;;;10.52;4.10;;;2.90;74.30;;;;;;4975936;28;20031;-74
2022/12/03 02:29:32;;;;;;;13.32;5.05;;;3.00;70.30;;;;;;4975028;28;20031;-74
2022/12/03 02:31:57;;;;;;;9.30;5.45;;;3.00;70.70;;;;;;4975632;28;20025;-74
2022/12/03 02:34:55;;;;;;;11.93;5.68;;;2.90;69.80;;;;;;4975380;28;20026;-74
2022/12/03 02:37:29;;;;;;;9.30;4.60;;;2.80;69.80;;;;;;4953342;28;20406;-73
2022/12/03 02:39:59;;;;;;;10.18;5.78;;;2.80;70.10;;;;;;4975380;28;20110;-74
2022/12/03 02:42:34;;;;;;;13.43;6.53;;;2.80;69.30;;;;;;4975367;28;20390;-73
2022/12/03 02:45:06;;;;;;;11.07;5.55;;;2.90;67.90;;;;;;4975336;28;20032;-74
2022/12/03 02:47:44;;;;;;;9.90;4.18;;;2.90;66.20;;;;;;4975299;28;20069;-73
2022/12/03 02:50:13;;;;;;;10.63;5.53;;;2.90;65.20;;;;;;4974956;28;20462;-74
2022/12/03 02:52:42;;;;;;;12.30;5.72;;;2.90;63.20;;;;;;4975277;28;20029;-73
2022/12/03 02:55:08;;;;;;;12.65;5.57;;;2.90;62.00;;;;;;4975205;28;20029;-73
2022/12/03 02:57:36;;;;;;;9.25;3.65;;;2.80;62.00;;;;;;4975017;28;20095;-74
2022/12/03 03:00:04;;;;;;;12.85;5.97;;;2.80;64.80;;;;;;4974898;28;20038;-73
2022/12/03 03:02:30;;;;;;;10.45;4.45;;;2.90;63.40;;;;;;4975033;28;20393;-74
2022/12/03 03:04:56;;;;;;;9.68;5.38;;;3.00;61.50;;;;;;4974904;28;20030;-73
2022/12/03 03:07:22;;;;;;;15.90;6.20;;;2.90;61.70;;;;;;4975150;28;20030;-74
2022/12/03 03:09:48;;;;;;;12.02;5.95;;;3.00;60.70;;;;;;4992463;28;20493;-74
2022/12/03 03:12:13;;;;;;;12.73;6.30;;;3.00;60.30;;;;;;4994656;28;20442;-74
2022/12/03 03:14:39;;;;;;;9.38;4.88;;;3.00;60.40;;;;;;4994363;28;20481;-74
2022/12/03 03:17:04;;;;;;;13.73;7.32;;;3.00;59.80;;;;;;4994085;28;20025;-74
2022/12/03 03:19:30;;;;;;;10.50;5.00;;;3.00;60.50;;;;;;4994245;28;20019;-73
2022/12/03 03:21:56;;;;;;;10.70;5.22;;;3.00;60.90;;;;;;4994401;28;20218;-74
2022/12/03 03:24:22;;;;;;;13.57;6.32;;;3.10;61.00;;;;;;4994231;28;20361;-73
2022/12/03 03:26:49;;;;;;;14.85;6.80;;;3.10;60.40;;;;;;4994468;28;20037;-74
2022/12/03 03:29:14;;;;;;;10.75;5.70;;;3.00;62.30;;;;;;4994142;28;20018;-73
2022/12/03 03:31:41;;;;;;;7.55;4.07;;;3.00;63.50;;;;;;4994180;28;20029;-74
2022/12/03 03:34:07;;;;;;;10.02;5.45;;;3.00;64.40;;;;;;4994205;28;20026;-73
2022/12/03 03:36:34;;;;;;;12.70;5.60;;;3.00;64.40;;;;;;4994340;28;20101;-74
2022/12/03 03:38:59;;;;;;;12.82;6.45;;;3.00;64.70;;;;;;4994146;28;20030;-74
2022/12/03 03:41:26;;;;;;;12.20;5.55;;;3.00;64.90;;;;;;4995051;28;20098;-73
2022/12/03 03:43:52;;;;;;;12.90;6.55;;;3.00;66.30;;;;;;4998109;28;20425;-74
2022/12/03 03:46:18;;;;;;;15.32;6.95;;;2.90;67.80;;;;;;4997994;28;20110;-73
2022/12/03 03:48:47;;;;;;;11.05;4.78;;;2.90;67.20;;;;;;4998087;28;20109;-74
2022/12/03 03:51:14;;;;;;;14.43;6.57;;;3.00;67.00;;;;;;4997124;28;20511;-74
2022/12/03 03:53:43;;;;;;;9.85;5.15;;;3.10;65.10;;;;;;4996420;28;20054;-73
2022/12/03 03:56:09;;;;;;;11.88;5.32;;;3.20;64.40;;;;;;4996571;28;20098;-73
2022/12/03 03:58:36;;;;;;;13.32;5.95;;;3.30;62.30;;;;;;4996667;28;20396;-73
2022/12/03 04:01:01;;;;;;;15.13;6.13;;;3.40;58.10;;;;;;4996522;28;20090;-74
2022/12/03 04:03:28;;;;;;;10.88;5.55;;;3.40;58.50;;;;;;4996398;28;20105;-73
2022/12/03 04:05:54;;;;;;;16.83;7.38;;;3.50;61.40;;;;;;4996418;28;20035;-73
2022/12/03 04:08:19;;;;;;;13.23;6.78;;;3.50;57.70;;;;;;4996472;28;20034;-74
2022/12/03 04:13:29;;;;;;;17.42;7.32;;;3.70;56.20;;;;;;4996495;28;20057;-74
2022/12/03 04:15:56;;;;;;;16.17;6.85;;;3.70;56.10;;;;;;4996268;28;20446;-73
2022/12/03 04:23:50;;;;;;;12.75;6.38;;;3.80;52.30;;;;;;4996236;28;20032;-74
2022/12/03 04:29:00;;;;;;;12.98;7.00;;;3.90;45.40;;;;;;4996207;28;20114;-74
2022/12/03 04:36:54;;;;;;;17.42;6.70;;;3.90;45.50;;;;;;4996001;28;20037;-74
2022/12/03 04:39:20;;;;;;;21.02;9.38;;;3.90;44.30;;;;;;4996063;28;20018;-74
2022/12/03 04:41:46;;;;;;;18.23;7.43;;;4.00;44.30;;;;;;4995941;28;20377;-74
2022/12/03 04:46:55;;;;;;;18.70;9.15;;;3.90;46.10;;;;;;4995848;28;20100;-74
2022/12/03 04:49:21;;;;;;;18.95;8.65;;;3.90;45.20;;;;;;4995809;28;20461;-74
2022/12/03 04:51:47;;;;;;;19.30;8.25;;;3.90;44.90;;;;;;4469298;28;15239104;-74
2022/12/03 04:54:13;;;;;;;15.40;6.20;;;3.90;45.10;;;;;;4996916;28;20469;-74
2022/12/03 04:56:38;;;;;;;15.13;6.72;;;3.90;42.50;;;;;;4996771;28;20030;-74
2022/12/03 04:59:04;;;;;;;16.10;7.20;;;3.90;43.80;;;;;;4996785;28;20047;-74
2022/12/03 05:01:29;;;;;;;17.73;7.75;;;3.90;40.70;;;;;;4996588;28;20032;-74
2022/12/03 05:03:55;;;;;;;16.02;7.05;;;3.90;40.80;;;;;;4996580;28;20085;-74
2022/12/03 05:06:21;;;;;;;15.35;7.30;;;4.00;37.70;;;;;;4987430;28;20098;-74
2022/12/03 05:08:46;;;;;;;21.60;9.77;;;4.00;36.20;;;;;;4977208;28;20023;-74
2022/12/03 05:11:12;;;;;;;12.90;6.20;;;4.00;34.60;;;;;;4976718;28;20110;-74
2022/12/03 05:13:37;;;;;;;18.92;8.85;;;4.00;33.40;;;;;;4976907;28;20432;-74
2022/12/03 05:16:03;;;;;;;17.45;7.05;;;4.00;31.90;;;;;;4976856;28;20023;-74
2022/12/03 05:18:28;;;;;;;15.90;6.90;;;3.90;32.70;;;;;;4977016;28;20019;-74
2022/12/03 05:20:54;;;;;;;18.05;7.20;;;4.00;31.80;;;;;;4981050;28;20015;-74
2022/12/03 05:23:20;;;;;;;19.20;7.90;;;3.90;31.90;;;;;;4976591;28;20023;-74
2022/12/03 05:25:45;;;;;;;13.80;6.97;;;3.90;31.70;;;;;;4976696;28;20402;-74
2022/12/03 05:28:11;;;;;;;13.65;6.63;;;3.90;31.60;;;;;;4988701;28;20026;-74
2022/12/03 05:30:37;;;;;;;17.60;8.57;;;3.90;34.30;;;;;;4996170;28;20058;-74
2022/12/03 05:33:02;;;;;;;15.35;7.95;;;4.00;30.30;;;;;;4995873;28;20085;-74
2022/12/03 05:35:28;;;;;;;13.13;6.15;;;3.90;32.30;;;;;;4994483;28;20018;-74
2022/12/03 05:37:54;;;;;;;18.25;8.00;;;3.90;30.60;;;;;;4983547;28;20023;-74
2022/12/03 05:40:19;;;;;;;13.95;6.60;;;3.90;31.60;;;;;;4985008;28;20102;-74
2022/12/03 05:42:59;;;;;;;17.88;7.85;;;3.90;31.40;;;;;;4976405;28;20031;-74
2022/12/03 05:45:36;;;;;;;20.33;8.77;;;3.90;31.60;;;;;;4987629;28;20028;-74
2022/12/03 05:48:04;;;;;;;19.85;9.05;;;3.90;31.50;;;;;;4992433;28;20053;-74
2022/12/03 05:50:32;;;;;;;17.98;7.93;;;3.90;30.00;;;;;;4995363;28;20042;-74
2022/12/03 05:52:58;;;;;;;16.20;7.00;;;3.90;30.80;;;;;;4995667;28;20038;-74
2022/12/03 05:55:24;;;;;;;16.65;8.48;;;3.80;30.70;;;;;;4995673;28;20030;-74
2022/12/03 05:57:50;;;;;;;19.23;8.05;;;3.90;29.50;;;;;;4995583;28;20024;-75
2022/12/03 06:00:17;;;;;;;16.75;8.60;;;3.90;29.60;;;;;;4995605;28;20023;-75
2022/12/03 06:02:43;;;;;;;16.50;7.90;;;3.80;29.80;;;;;;4995467;28;20077;-74
2022/12/03 06:05:10;;;;;;;18.20;7.30;;;3.80;30.10;;;;;;4994623;28;20045;-74
2022/12/03 06:07:36;;;;;;;19.10;8.07;;;3.80;30.70;;;;;;4995332;28;20034;-74
2022/12/03 06:10:04;;;;;;;19.83;8.95;;;3.80;30.50;;;;;;4995417;28;20022;-74
2022/12/03 06:12:30;;;;;;;20.58;9.15;;;3.80;29.30;;;;;;4995136;28;20046;-75
2022/12/03 06:14:55;;;;;;;15.90;6.50;;;3.80;30.00;;;;;;4995330;28;20018;-75
2022/12/03 06:17:21;;;;;;;18.40;6.90;;;3.80;28.80;;;;;;4995157;28;20035;-75
2022/12/03 06:19:46;;;;;;;17.73;7.68;;;3.80;29.60;;;;;;4993750;28;20033;-74
2022/12/03 06:22:12;;;;;;;17.73;8.57;;;3.80;27.60;;;;;;4975639;28;20532;-74
2022/12/03 06:24:38;;;;;;;20.67;10.35;;;3.90;26.70;;;;;;4983661;28;20031;-74
2022/12/03 06:27:03;;;;;;;14.38;6.43;;;3.80;24.70;;;;;;4995010;28;20041;-74
2022/12/03 06:29:29;;;;;;;15.90;7.35;;;3.80;23.70;;;;;;4994913;28;20374;-74
2022/12/03 06:31:54;;;;;;;14.80;6.70;;;3.90;22.60;;;;;;4995095;28;20030;-75
2022/12/03 06:34:20;;;;;;;16.42;7.03;;;3.80;23.50;;;;;;4994979;28;20034;-75
2022/12/03 06:36:45;;;;;;;16.92;7.45;;;3.80;24.30;;;;;;4994990;28;20018;-74
2022/12/03 06:39:12;;;;;;;17.42;7.47;;;3.80;24.90;;;;;;4994811;28;20075;-74
2022/12/03 06:41:37;;;;;;;14.05;6.53;;;3.80;28.00;;;;;;4994890;28;20026;-74
2022/12/03 06:44:03;;;;;;;13.75;6.82;;;3.80;26.20;;;;;;4994749;28;20096;-74
2022/12/03 06:46:29;;;;;;;18.48;7.50;;;3.70;26.30;;;;;;4994739;28;20026;-74
2022/12/03 06:48:54;;;;;;;17.70;8.02;;;3.70;26.80;;;;;;4976888;28;20107;-74
2022/12/03 06:51:20;;;;;;;16.42;7.68;;;3.70;28.00;;;;;;4975058;28;20138;-75
2022/12/03 06:53:45;;;;;;;18.05;7.53;;;3.70;27.80;;;;;;4975025;28;20037;-74
2022/12/03 06:56:11;;;;;;;20.15;9.05;;;3.70;28.10;;;;;;4975121;28;20018;-74
2022/12/03 06:58:37;;;;;;;17.67;7.60;;;3.70;27.60;;;;;;4975152;28;20022;-75
2022/12/03 07:01:02;;;;;;;19.13;8.93;;;3.70;26.20;;;;;;4975061;28;20076;-75
2022/12/03 07:03:28;;;;;;;16.05;7.55;;;3.70;26.80;;;;;;4983779;28;20030;-75
2022/12/03 07:05:53;;;;;;;17.45;7.32;;;3.60;26.40;;;;;;4994323;28;20022;-74
2022/12/03 07:08:19;;;;;;;15.38;7.13;;;3.70;25.10;;;;;;4993820;28;20153;-74
2022/12/03 07:10:44;;;;;;;17.13;8.38;;;3.70;23.30;;;;;;4979537;28;20027;-74
2022/12/03 07:13:10;;;;;;;17.70;8.50;;;3.60;21.80;;;;;;4974799;28;20023;-74
2022/12/03 07:15:36;;;;;;;19.80;7.63;;;3.70;21.40;;;;;;4974902;28;20085;-75
2022/12/03 07:18:01;;;;;;;20.73;9.20;;;3.60;20.90;;;;;;4976390;28;20023;-75
2022/12/03 07:20:27;;;;;;;16.90;6.72;;;3.60;21.50;;;;;;4977333;28;20454;-74
2022/12/03 07:22:52;;;;;;;21.88;8.65;;;3.50;20.90;;;;;;4986766;28;20019;-74
2022/12/03 07:25:18;;;;;;;16.33;8.02;;;3.50;19.40;;;;;;4990465;28;20041;-74
2022/12/03 07:27:43;;;;;;;21.17;8.98;;;3.50;19.10;;;;;;4993957;28;20068;-75
2022/12/03 07:30:12;;;;;;;16.98;6.97;;;3.50;19.40;;;;;;4993708;28;21261;-75
2022/12/03 07:32:37;;;;;;;13.20;6.25;;;3.50;18.50;;;;;;4988915;28;20069;-75
2022/12/03 07:35:06;;;;;;;19.98;8.18;;;3.50;18.30;;;;;;4993597;28;20408;-74
2022/12/03 07:37:32;;;;;;;18.77;8.32;;;3.50;18.90;;;;;;4993796;28;20377;-75
2022/12/03 07:39:58;;;;;;;22.77;8.32;;;3.50;19.30;;;;;;4993405;28;20023;-75
2022/12/03 07:42:24;;;;;;;18.30;8.32;;;3.50;19.30;;;;;;4993485;28;20026;-75
2022/12/03 07:44:49;;;;;;;14.60;6.32;;;3.50;19.20;;;;;;4993475;28;20026;-75
2022/12/03 07:47:15;;;;;;;15.10;6.38;;;3.50;19.40;;;;;;4994002;28;20106;-75
2022/12/03 07:49:41;;;;;;;17.20;6.65;;;3.40;19.30;;;;;;4994002;28;20027;-75
2022/12/03 07:52:06;;;;;;;16.90;8.02;;;3.40;18.60;;;;;;4993812;28;20046;-75
2022/12/03 07:54:32;;;;;;;11.20;5.40;;;3.40;18.30;;;;;;4993948;28;20093;-74
2022/12/03 07:56:57;;;;;;;17.60;7.43;;;3.50;17.70;;;;;;4994073;28;20022;-75
2022/12/03 07:59:23;;;;;;;17.42;7.50;;;3.40;17.10;;;;;;4993839;28;20031;-75
2022/12/03 08:01:49;;;;;;;14.73;7.30;;;3.40;17.10;;;;;;4994091;28;20022;-75
2022/12/03 08:04:17;;;;;;;17.65;7.85;;;3.40;18.90;;;;;;4993791;28;20118;-75
2022/12/03 08:06:43;;;;;;;18.10;7.82;;;3.50;17.30;;;;;;4994118;28;20027;-75
2022/12/03 08:09:09;;;;;;;18.38;7.72;;;3.40;17.70;;;;;;4989552;28;20049;-75
2022/12/03 08:11:34;;;;;;;12.90;6.38;;;3.40;17.60;;;;;;4993810;28;20401;-75
2022/12/03 08:14:06;;;;;;;18.15;6.97;;;3.40;17.30;;;;;;4993729;28;20026;-75
2022/12/03 08:16:35;;;;;;;13.77;7.07;;;3.50;16.00;;;;;;4993750;28;20401;-74
2022/12/03 08:19:04;;;;;;;17.42;7.13;;;3.50;15.30;;;;;;4974241;28;20478;-74
2022/12/03 08:21:34;;;;;;;16.20;6.13;;;3.50;16.40;;;;;;4974447;28;20521;-75
2022/12/03 08:24:14;;;;;;;14.70;6.65;;;3.50;13.80;;;;;;4974245;28;20109;-74
2022/12/03 08:26:43;;;;;;;14.85;6.28;;;3.50;14.20;;;;;;4974476;28;20493;-74
2022/12/03 08:29:11;;;;;;;20.52;7.03;;;3.50;13.50;;;;;;4977767;28;20411;-74
2022/12/03 08:31:38;;;;;;;16.48;7.05;;;3.50;14.00;;;;;;4977785;28;20023;-74
2022/12/03 08:34:16;;;;;;;13.35;7.13;;;3.50;13.30;;;;;;4977817;28;20113;-74
2022/12/03 08:36:41;;;;;;;17.75;8.07;;;3.50;12.30;;;;;;4977519;28;20019;-74
2022/12/03 08:39:27;;;;;;;16.63;6.55;;;3.50;12.00;;;;;;4977593;28;20351;-74
2022/12/03 08:44:41;;;;;;;18.67;8.25;;;3.50;14.20;;;;;;4996954;28;20082;-74
2022/12/03 08:47:11;;;;;;;20.05;7.45;;;3.50;12.30;;;;;;4997187;28;20022;-74
2022/12/03 08:49:38;;;;;;;18.35;8.10;;;3.50;11.40;;;;;;4997265;28;20458;-74
2022/12/03 08:52:19;;;;;;;14.25;6.57;;;3.50;11.20;;;;;;4996697;28;20050;-74
2022/12/03 08:54:51;;;;;;;11.55;5.32;;;3.50;10.90;;;;;;4976410;28;20034;-74
2022/12/03 08:57:33;;;;;;;17.48;7.32;;;3.50;11.20;;;;;;4977567;28;20430;-74
2022/12/03 09:00:22;;;;;;;19.45;8.52;;;3.50;10.90;;;;;;4982170;28;20026;-74
2022/12/03 09:02:59;;;;;;;16.20;6.93;;;3.50;12.10;;;;;;4994987;28;20046;-74
2022/12/03 09:05:32;;;;;;;17.95;7.75;;;3.50;10.60;;;;;;4995254;28;20023;-74
2022/12/03 09:07:57;;;;;;;16.67;6.97;;;3.50;11.50;;;;;;4995672;28;20022;-74
2022/12/03 09:10:23;;;;;;;18.38;7.80;;;3.50;10.50;;;;;;4995491;28;20377;-75
2022/12/03 09:12:48;;;;;;;14.43;7.03;;;3.50;9.80;;;;;;4995648;28;20031;-74
2022/12/03 09:15:14;;;;;;;17.83;8.07;;;3.50;9.40;;;;;;4995815;28;20030;-75
2022/12/03 09:17:40;;;;;;;16.15;8.02;;;3.50;8.70;;;;;;4992542;28;20027;-75
2022/12/03 09:20:07;;;;;;;13.25;6.03;;;3.60;8.30;;;;;;4976889;28;20097;-75
2022/12/03 09:22:32;;;;;;;18.75;8.90;;;3.60;7.60;;;;;;4976837;28;20019;-75
2022/12/03 09:24:58;;;;;;;18.85;8.40;;;3.60;7.80;;;;;;4976859;28;20034;-75
2022/12/03 09:27:24;;;;;;;13.50;7.32;;;3.60;7.70;;;;;;4976636;28;20118;-75
2022/12/03 09:29:50;;;;;;;19.52;8.60;;;3.60;5.80;;;;;;4976647;28;20027;-76
2022/12/03 09:32:15;;;;;;;14.65;6.53;;;3.60;6.90;;;;;;4976546;28;20468;-76
2022/12/03 09:34:41;;;;;;;17.25;6.80;;;3.60;7.00;;;;;;4976704;28;20030;-76
2022/12/03 09:37:07;;;;;;;15.25;6.93;;;3.60;6.50;;;;;;4978192;28;20019;-76
2022/12/03 09:39:33;;;;;;;14.68;6.40;;;3.70;6.90;;;;;;4994402;28;20034;-76
2022/12/03 09:41:59;;;;;;;10.98;5.72;;;3.60;7.60;;;;;;4995489;28;20381;-76
2022/12/03 09:44:27;;;;;;;17.23;8.00;;;3.60;8.00;;;;;;4995438;28;20037;-75
2022/12/03 09:46:53;;;;;;;18.02;7.40;;;3.60;8.60;;;;;;4996497;28;20078;-76
2022/12/03 09:49:19;;;;;;;20.75;8.63;;;3.70;8.20;;;;;;4981239;28;20118;-76
2022/12/03 09:51:45;;;;;;;13.30;6.43;;;3.60;7.40;;;;;;4979285;28;20400;-76
2022/12/03 09:54:21;;;;;;;16.88;7.75;;;3.70;6.20;;;;;;4975688;28;20058;-76
2022/12/03 09:56:46;;;;;;;19.58;8.38;;;3.60;6.40;;;;;;4977772;28;20022;-76
2022/12/03 09:59:13;;;;;;;21.27;8.95;;;3.60;5.90;;;;;;4976404;28;20041;-76
2022/12/03 10:01:39;;;;;;;18.10;7.53;;;3.60;5.60;;;;;;4978518;28;20019;-76
2022/12/03 10:04:05;;;;;;;15.07;7.70;;;3.60;5.60;;;;;;4973975;28;20090;-76
2022/12/03 10:06:30;;;;;;;17.50;8.20;;;3.60;5.50;;;;;;4976738;28;20085;-76
2022/12/03 10:08:58;;;;;;;16.23;7.07;;;3.60;4.90;;;;;;4976590;28;20333;-76
2022/12/03 10:11:25;;;;;;;20.48;7.90;;;3.60;4.60;;;;;;4974622;28;20363;-76
2022/12/03 10:13:52;;;;;;;18.40;8.23;;;3.60;4.70;;;;;;4978664;28;20523;-76
2022/12/03 10:16:19;;;;;;;21.38;9.05;;;3.60;4.40;;;;;;4984994;28;20033;-76
2022/12/03 10:18:51;;;;;;;14.32;6.85;;;3.60;3.70;;;;;;4981031;28;20110;-76
2022/12/03 10:21:36;;;;;;;20.10;8.30;;;3.60;4.00;;;;;;4974459;28;20023;-76
2022/12/03 10:24:20;;;;;;;17.00;7.53;;;3.50;3.70;;;;;;4977816;28;20023;-76
2022/12/03 10:26:47;;;;;;;17.20;8.65;;;3.60;3.80;;;;;;4983431;28;20753;-76
2022/12/03 10:29:17;;;;;;;15.60;7.47;;;3.60;3.00;;;;;;4974866;28;20375;-76
2022/12/03 10:31:43;;;;;;;17.77;8.50;;;3.50;3.10;;;;;;4993904;28;20037;-76
2022/12/03 10:34:09;;;;;;;18.60;8.55;;;3.60;3.60;;;;;;4994814;28;20030;-75
2022/12/03 10:36:35;;;;;;;19.67;8.05;;;3.60;3.00;;;;;;4994713;28;20033;-76
2022/12/03 10:39:16;;;;;;;14.07;6.95;;;3.60;2.20;;;;;;4994701;28;20022;-75
2022/12/03 10:41:43;;;;;;;16.42;6.70;;;3.60;2.20;;;;;;4994688;28;20137;-75
2022/12/03 10:44:15;;;;;;;21.58;8.10;;;3.60;1.70;;;;;;4994698;28;20038;-74
2022/12/03 10:46:41;;;;;;;18.92;8.05;;;3.60;1.60;;;;;;4994160;28;20093;-75
2022/12/03 10:49:18;;;;;;;14.75;7.15;;;3.60;1.30;;;;;;4994459;28;20106;-75
2022/12/03 10:51:47;;;;;;;23.27;9.18;;;3.60;1.10;;;;;;4994014;28;20054;-76
2022/12/03 10:54:18;;;;;;;22.30;8.52;;;3.70;1.00;;;;;;4994690;28;20030;-75
2022/12/03 10:56:44;;;;;;;20.38;8.50;;;3.70;1.00;;;;;;4994640;28;20022;-75
2022/12/03 10:59:16;;;;;;;21.60;9.32;;;3.70;1.00;;;;;;4994440;28;20030;-75
2022/12/03 11:01:41;;;;;;;21.50;9.55;;;3.70;1.00;;;;;;4994547;28;20377;-74
2022/12/03 11:04:22;;;;;;;19.77;8.50;;;3.70;1.00;;;;;;4993554;28;20046;-74
2022/12/03 11:06:49;;;;;;;20.15;9.38;;;3.60;1.00;;;;;;4994174;28;20493;-75
2022/12/03 11:09:31;;;;;;;22.17;9.60;;;3.60;1.00;;;;;;4967030;28;20080;-74
2022/12/03 11:12:05;;;;;;;26.83;9.93;;;3.70;1.00;;;;;;4992610;28;20045;-75
2022/12/03 11:14:55;;;;;;;23.88;8.93;;;3.60;1.00;;;;;;4985699;28;20093;-75
2022/12/03 11:17:42;;;;;;;21.77;9.02;;;3.60;1.00;;;;;;4977800;28;20026;-75
2022/12/03 11:20:18;;;;;;;23.80;10.23;;;3.60;1.00;;;;;;4975081;28;20030;-75
2022/12/03 11:22:46;;;;;;;19.83;8.68;;;3.70;1.00;;;;;;4980731;28;20025;-76
2022/12/03 11:25:24;;;;;;;20.63;8.25;;;3.60;1.00;;;;;;4991225;28;20041;-75
2022/12/03 11:28:11;;;;;;;19.35;9.18;;;3.60;1.00;;;;;;4982868;28;20065;-75
2022/12/03 11:30:49;;;;;;;17.17;8.07;;;3.60;1.00;;;;;;4977186;28;20117;-75
2022/12/03 11:33:28;;;;;;;20.08;10.00;;;3.60;1.00;;;;;;4988318;28;20240;-75
2022/12/03 11:36:00;;;;;;;21.30;9.20;;;3.60;1.00;;;;;;4971738;28;20656;-76
2022/12/03 11:38:40;;;;;;;17.45;8.15;;;3.70;1.00;;;;;;4971988;28;20425;-75
2022/12/03 11:41:22;;;;;;;24.88;7.75;;;3.70;1.00;;;;;;4972049;28;20027;-75
2022/12/03 11:43:56;;;;;;;19.25;8.50;;;3.70;1.00;;;;;;4990749;28;20031;-75
2022/12/03 11:46:29;;;;;;;20.48;8.88;;;3.70;1.00;;;;;;4976572;28;20030;-75
2022/12/03 11:48:57;;;;;;;22.23;9.32;;;3.70;1.00;;;;;;4987450;28;20486;-75
2022/12/03 11:51:26;;;;;;;16.48;6.80;;;3.70;1.00;;;;;;4973460;28;20089;-75
2022/12/03 11:53:56;;;;;;;21.17;8.38;;;3.70;1.00;;;;;;4987108;28;20035;-75
2022/12/03 11:56:25;;;;;;;19.27;7.38;;;3.70;1.00;;;;;;4974497;28;20029;-75
2022/12/03 11:59:03;;;;;;;22.58;8.15;;;3.70;1.00;;;;;;4973981;28;20081;-75
2022/12/03 12:01:37;;;;;;;21.38;8.50;;;3.70;1.00;;;;;;4973511;28;20394;-75
2022/12/03 12:04:03;;;;;;;22.85;8.10;;;3.70;1.00;;;;;;4977020;28;20437;-75
2022/12/03 12:06:42;;;;;;;17.25;7.93;;;3.60;1.00;;;;;;4985116;28;20552;-75
2022/12/03 12:09:08;;;;;;;16.88;7.75;;;3.50;1.00;;;;;;4981582;28;20498;-75
2022/12/03 12:11:42;;;;;;;14.90;6.88;;;3.50;1.00;;;;;;4987002;28;20054;-75
2022/12/03 12:14:10;;;;;;;19.63;7.75;;;3.50;1.00;;;;;;4989858;28;20031;-75
2022/12/03 12:16:51;;;;;;;18.77;7.38;;;3.50;1.00;;;;;;4977326;28;20023;-75
2022/12/03 12:19:34;;;;;;;21.15;8.25;;;3.50;1.00;;;;;;4977387;28;20110;-75
2022/12/03 12:22:15;;;;;;;18.17;7.13;;;3.50;1.00;;;;;;4982036;28;20051;-75
2022/12/03 12:24:44;;;;;;;19.92;7.45;;;3.50;1.00;;;;;;4986283;28;20034;-75
2022/12/03 12:27:16;;;;;;;22.05;9.13;;;3.50;1.00;;;;;;4996107;28;20100;-75
2022/12/03 12:29:47;;;;;;;25.63;10.15;;;3.60;1.00;;;;;;4977710;28;20023;-75
2022/12/03 12:32:16;;;;;;;23.70;10.02;;;3.50;1.00;;;;;;4984850;28;20035;-75
2022/12/03 12:34:47;;;;;;;16.48;8.70;;;3.50;1.00;;;;;;4984684;28;20026;-75
2022/12/03 12:37:21;;;;;;;17.50;8.75;;;3.60;1.00;;;;;;4982506;28;20033;-75
2022/12/03 12:39:47;;;;;;;18.65;8.32;;;3.60;1.00;;;;;;4993878;28;20527;-75
2022/12/03 12:42:25;;;;;;;19.40;8.15;;;3.50;1.00;;;;;;4982618;28;20033;-75
2022/12/03 12:44:52;;;;;;;19.05;8.43;;;3.50;1.00;;;;;;4976886;28;20066;-75
2022/12/03 12:47:17;;;;;;;13.18;6.85;;;3.60;1.00;;;;;;4977652;28;20023;-75
2022/12/03 12:49:43;;;;;;;23.05;10.70;;;3.50;1.00;;;;;;4977527;28;20090;-75
2022/12/03 12:52:12;;;;;;;13.25;6.10;;;3.50;1.00;;;;;;4977224;28;20485;-75
2022/12/03 12:54:38;;;;;;;20.33;9.13;;;3.60;1.00;;;;;;4984044;28;20045;-75
2022/12/03 12:57:11;;;;;;;21.33;8.77;;;3.50;1.00;;;;;;4985767;28;20018;-75
2022/12/03 12:59:37;;;;;;;21.98;9.45;;;3.50;1.00;;;;;;4982426;28;20101;-75
2022/12/03 13:02:47;;;;;;;18.77;9.18;;;3.50;1.00;;;;;;4983764;28;20038;-75
2022/12/03 13:05:13;;;;;;;;;;;3.40;1.00;;;;;;4968723;28;20500;-76
2022/12/03 13:07:41;;;;;;;18.88;8.18;;;3.50;1.00;;;;;;4987808;28;19910;-75
2022/12/03 13:10:35;;;;;;;16.25;7.45;;;3.40;1.00;;;;;;4982894;28;20493;-75
2022/12/03 13:13:27;;;;;;;19.60;7.70;;;3.40;1.00;;;;;;4972011;28;20046;-75
2022/12/03 13:16:00;;;;;;;17.25;7.90;;;3.40;1.00;;;;;;4977849;28;20537;-75
2022/12/03 13:18:33;;;;;;;25.42;10.00;;;3.30;1.00;;;;;;4979603;28;20029;-75
2022/12/03 13:21:05;;;;;;;18.27;7.78;;;3.30;1.00;;;;;;4985417;28;20117;-75